Time;durP1;ratioP1;P1;durP2;ratioP2;P2;SDS_P1;SDS_P2;PMS_P1;PMS_P2;Temp;Humidity;BMP_temperature;BMP_pressure;BME280_temperature;BME280_humidity;BME280_pressure;Samples;Min_cycle;Max_cycle;Signal;HPM_P1;HPM_P2
2021/11/05 00:00:51;;;;;;;3.55;2.17;;;;;;;4.30;53.56;101197.50;4985903;28;20038;-64
2021/11/05 00:03:16;;;;;;;6.07;2.70;;;;;;;4.46;53.59;101194.78;4984639;28;20482;-65
2021/11/05 00:05:42;;;;;;;11.52;2.50;;;;;;;4.55;53.36;101199.84;4984774;28;20042;-65
2021/11/05 00:08:07;;;;;;;7.95;2.80;;;;;;;4.22;54.02;101214.81;4984785;28;20043;-65
2021/11/05 00:10:35;;;;;;;8.30;2.85;;;;;;;4.58;54.30;101207.59;4984991;28;20034;-65
2021/11/05 00:13:01;;;;;;;9.32;3.03;;;;;;;4.98;55.31;101207.19;4984094;28;20030;-65
2021/11/05 00:15:28;;;;;;;9.43;3.47;;;;;;;5.32;54.64;101204.19;4983380;28;20389;-65
2021/11/05 00:17:53;;;;;;;6.57;3.25;;;;;;;5.50;54.74;101203.94;4985142;28;20686;-65
2021/11/05 00:20:19;;;;;;;13.65;3.22;;;;;;;5.73;54.23;101202.81;4984509;28;20148;-65
2021/11/05 00:22:45;;;;;;;7.05;3.80;;;;;;;5.84;53.70;101208.69;4984014;28;20119;-67
2021/11/05 00:25:10;;;;;;;9.15;3.33;;;;;;;5.87;53.50;101213.81;4985257;28;20042;-66
2021/11/05 00:27:37;;;;;;;6.95;3.10;;;;;;;5.91;53.48;101204.25;4983484;28;20369;-64
2021/11/05 00:30:08;;;;;;;6.57;3.67;;;;;;;5.90;53.44;101205.97;4984351;28;20042;-65
2021/11/05 00:32:34;;;;;;;7.82;2.88;;;;;;;5.95;53.69;101201.59;4984680;28;20046;-65
2021/11/05 00:34:59;;;;;;;13.35;4.13;;;;;;;5.94;53.33;101210.25;4986193;28;20029;-65
2021/11/05 00:37:25;;;;;;;6.82;3.40;;;;;;;5.83;53.64;101215.59;4984447;28;20509;-64
2021/11/05 00:39:51;;;;;;;6.75;3.55;;;;;;;5.79;54.07;101218.25;4986680;28;20523;-65
2021/11/05 00:42:16;;;;;;;11.07;3.38;;;;;;;5.72;54.04;101220.06;4985553;28;20046;-66
2021/11/05 00:44:42;;;;;;;6.78;3.50;;;;;;;5.78;53.76;101220.00;4986892;28;20035;-64
2021/11/05 00:47:08;;;;;;;13.98;3.22;;;;;;;5.78;53.48;101220.00;4983959;28;20117;-65
2021/11/05 00:49:34;;;;;;;10.25;3.10;;;;;;;5.78;53.38;101226.94;4985697;28;20073;-65
2021/11/05 00:51:59;;;;;;;8.35;3.15;;;;;;;5.74;53.55;101227.84;4983790;28;20022;-68
2021/11/05 00:54:24;;;;;;;5.97;3.03;;;;;;;5.76;53.60;101228.69;4985897;28;20403;-65
2021/11/05 00:56:50;;;;;;;5.95;3.13;;;;;;;5.78;53.41;101234.72;4984335;28;20388;-65
2021/11/05 00:59:15;;;;;;;8.20;2.75;;;;;;;5.76;53.62;101231.28;4986372;28;20034;-68
2021/11/05 01:01:41;;;;;;;11.52;3.63;;;;;;;5.82;54.04;101231.19;4987467;28;20034;-66
2021/11/05 01:04:06;;;;;;;6.00;2.63;;;;;;;5.89;53.88;101232.81;4988791;28;20107;-66
2021/11/05 01:06:32;;;;;;;9.13;3.90;;;;;;;5.89;54.21;101238.00;4990460;28;20431;-67
2021/11/05 01:08:58;;;;;;;9.40;3.65;;;;;;;5.94;54.26;101243.13;4988628;28;20078;-66
2021/11/05 01:11:24;;;;;;;9.55;3.15;;;;;;;5.91;54.28;101245.78;4990258;28;20065;-67
2021/11/05 01:13:49;;;;;;;7.13;2.80;;;;;;;5.98;54.24;101242.19;4988642;28;20069;-64
2021/11/05 01:16:14;;;;;;;7.15;3.15;;;;;;;5.98;54.14;101242.19;4991146;28;20038;-64
2021/11/05 01:18:40;;;;;;;8.65;3.47;;;;;;;6.06;54.14;101246.41;4986974;28;20134;-65
2021/11/05 01:21:06;;;;;;;9.20;3.33;;;;;;;5.97;54.31;101243.06;5002772;28;20038;-65
2021/11/05 01:23:32;;;;;;;10.68;3.55;;;;;;;6.11;53.86;101242.88;4986735;28;20157;-64
2021/11/05 01:25:58;;;;;;;5.22;2.65;;;;;;;6.12;53.76;101244.59;4988869;28;20125;-65
2021/11/05 01:28:24;;;;;;;11.23;3.78;;;;;;;6.07;53.69;101242.06;4987354;28;20050;-65
2021/11/05 01:30:49;;;;;;;9.85;2.95;;;;;;;6.13;54.06;101252.34;4989708;28;20148;-64
2021/11/05 01:33:15;;;;;;;8.40;3.17;;;;;;;6.12;53.76;101253.22;4986980;28;20038;-66
2021/11/05 01:35:42;;;;;;;16.08;4.10;;;;;;;6.08;53.98;101259.31;4986706;28;20187;-66
2021/11/05 01:38:08;;;;;;;5.70;3.42;;;;;;;6.13;53.66;101259.25;4988060;28;20543;-68
2021/11/05 01:40:36;;;;;;;5.93;2.97;;;;;;;6.11;53.87;101261.03;4988430;28;20050;-67
2021/11/05 01:43:02;;;;;;;8.07;2.78;;;;;;;6.12;53.91;101265.34;4988104;28;20031;-65
2021/11/05 01:45:30;;;;;;;8.10;2.60;;;;;;;6.19;54.11;101274.75;4987305;28;20093;-65
2021/11/05 01:47:56;;;;;;;6.68;2.78;;;;;;;6.24;53.86;101272.97;4986822;28;20127;-66
2021/11/05 01:50:22;;;;;;;5.25;2.55;;;;;;;6.21;53.82;101270.38;4986505;28;20030;-68
2021/11/05 01:52:48;;;;;;;4.68;1.58;;;;;;;6.02;54.21;101277.59;4988292;28;20105;-66
2021/11/05 01:55:14;;;;;;;4.82;1.92;;;;;;;6.20;53.64;101273.88;4986219;28;20093;-67
2021/11/05 01:57:42;;;;;;;7.32;2.00;;;;;;;6.17;53.60;101284.28;4985996;28;20034;-67
2021/11/05 02:00:13;;;;;;;3.65;1.95;;;;;;;6.18;53.82;101284.28;4988398;28;20030;-66
2021/11/05 02:02:40;;;;;;;3.55;1.67;;;;;;;6.21;53.66;101280.78;4987915;28;20035;-67
2021/11/05 02:05:06;;;;;;;5.18;2.10;;;;;;;6.02;54.19;101280.19;4987804;28;20081;-65
2021/11/05 02:07:34;;;;;;;7.40;1.67;;;;;;;6.12;54.25;101280.91;4986616;28;20081;-64
2021/11/05 02:10:04;;;;;;;4.75;1.45;;;;;;;6.08;54.41;101283.56;4986344;28;20121;-64
2021/11/05 02:12:31;;;;;;;5.55;1.45;;;;;;;6.14;54.76;101279.16;4986420;28;20069;-64
2021/11/05 02:15:01;;;;;;;3.20;1.23;;;;;;;6.12;54.77;101286.09;4979477;28;20034;-64
2021/11/05 02:17:27;;;;;;;4.20;0.90;;;;;;;6.27;54.05;101281.53;4986857;28;20594;-65
2021/11/05 02:19:53;;;;;;;4.22;1.02;;;;;;;6.16;55.24;101290.38;4985588;28;20038;-64
2021/11/05 02:22:19;;;;;;;5.90;1.27;;;;;;;6.33;53.99;101296.22;4986203;28;20065;-63
2021/11/05 02:24:45;;;;;;;3.85;0.75;;;;;;;6.36;54.17;101288.34;4986249;28;20030;-64
2021/11/05 02:27:10;;;;;;;8.32;1.65;;;;;;;6.31;54.31;101281.50;4986097;28;20487;-66
2021/11/05 02:29:36;;;;;;;3.70;1.27;;;;;;;6.39;54.30;101298.69;4987581;28;20712;-67
2021/11/05 02:32:03;;;;;;;5.00;0.63;;;;;;;6.37;54.88;101303.03;4986723;28;20031;-66
2021/11/05 02:34:29;;;;;;;3.22;0.88;;;;;;;6.70;54.01;101304.25;5003193;28;20077;-67
2021/11/05 02:36:55;;;;;;;2.70;0.82;;;;;;;6.68;53.95;101302.56;5004264;28;20022;-66
2021/11/05 02:39:21;;;;;;;1.50;0.60;;;;;;;6.56;54.77;101306.22;5005425;28;20034;-66
2021/11/05 02:41:49;;;;;;;2.90;0.70;;;;;;;6.77;54.24;101306.75;5002126;28;20057;-64
2021/11/05 02:44:15;;;;;;;6.25;0.50;;;;;;;6.81;53.94;101316.19;5000061;28;20092;-64
2021/11/05 02:46:41;;;;;;;6.72;0.65;;;;;;;6.98;53.62;101319.38;5005043;28;20034;-65
2021/11/05 02:49:08;;;;;;;4.18;1.35;;;;;;;6.75;54.06;101324.94;5003414;28;20034;-63
2021/11/05 02:51:36;;;;;;;2.42;0.85;;;;;;;6.94;53.79;101327.25;4988787;28;20044;-66
2021/11/05 02:54:02;;;;;;;3.20;0.30;;;;;;;6.93;53.98;101328.97;4987201;28;20042;-64
2021/11/05 02:56:28;;;;;;;1.75;0.30;;;;;;;6.95;53.76;101328.94;4980210;28;20046;-65
2021/11/05 02:58:54;;;;;;;2.28;0.25;;;;;;;6.99;53.53;101333.22;4985360;28;20046;-65
2021/11/05 03:01:20;;;;;;;1.40;0.55;;;;;;;6.77;54.62;101337.91;4988334;28;20322;-65
2021/11/05 03:03:45;;;;;;;0.95;0.30;;;;;;;6.98;53.76;101336.72;4985662;28;20139;-67
2021/11/05 03:06:11;;;;;;;1.00;0.30;;;;;;;6.95;53.86;101339.34;4986752;28;20157;-67
2021/11/05 03:08:37;;;;;;;1.20;0.45;;;;;;;6.82;54.04;101342.16;4985448;28;20046;-64
2021/11/05 03:11:03;;;;;;;1.67;0.38;;;;;;;6.78;54.43;101339.66;4988445;28;20109;-64
2021/11/05 03:13:29;;;;;;;3.22;0.57;;;;;;;6.74;54.19;101349.22;4984020;28;20566;-63
2021/11/05 03:15:54;;;;;;;9.40;0.20;;;;;;;6.68;54.18;101344.97;4985234;28;20025;-63
2021/11/05 03:18:20;;;;;;;4.57;0.43;;;;;;;6.67;54.25;101347.63;4985024;28;20644;-63
2021/11/05 03:20:47;;;;;;;2.47;0.38;;;;;;;6.54;54.71;101351.28;4987049;28;20510;-64
2021/11/05 03:23:14;;;;;;;0.93;0.28;;;;;;;6.48;54.55;101347.91;4984463;28;20046;-63
2021/11/05 03:25:40;;;;;;;4.97;0.98;;;;;;;6.34;54.90;101349.84;4985901;28;20033;-62
2021/11/05 03:28:06;;;;;;;1.75;1.05;;;;;;;6.30;55.04;101358.53;4985383;28;20512;-63
2021/11/05 03:30:32;;;;;;;3.30;0.20;;;;;;;6.35;54.94;101361.94;4986592;28;20042;-66
2021/11/05 03:32:58;;;;;;;6.32;0.28;;;;;;;6.35;55.41;101356.75;4985049;28;20049;-63
2021/11/05 03:35:24;;;;;;;2.55;0.17;;;;;;;6.41;55.44;101364.44;4985492;28;20120;-64
2021/11/05 03:37:50;;;;;;;2.28;0.20;;;;;;;6.53;55.80;101367.72;4984964;28;20129;-64
2021/11/05 03:40:17;;;;;;;3.28;0.10;;;;;;;6.64;55.40;101371.91;4985860;28;20038;-65
2021/11/05 03:42:43;;;;;;;0.60;0.47;;;;;;;6.78;54.89;101376.88;4986168;28;20384;-66
2021/11/05 03:45:09;;;;;;;2.97;0.10;;;;;;;6.77;54.85;101380.34;4985159;28;20038;-66
2021/11/05 03:47:35;;;;;;;5.20;0.10;;;;;;;6.76;55.12;101381.22;4985273;28;20089;-65
2021/11/05 03:50:01;;;;;;;6.20;0.20;;;;;;;6.69;55.76;101380.47;4985846;28;20042;-66
2021/11/05 03:52:26;;;;;;;1.77;0.30;;;;;;;6.93;55.02;101393.06;4988956;28;20034;-64
2021/11/05 03:54:52;;;;;;;3.92;0.10;;;;;;;6.84;55.29;101397.56;4986501;28;20034;-65
2021/11/05 03:57:17;;;;;;;2.30;0.20;;;;;;;6.90;55.81;101405.25;4984993;28;20038;-64
2021/11/05 03:59:43;;;;;;;1.02;0.20;;;;;;;7.13;54.89;101411.78;4986913;28;20034;-66
2021/11/05 04:02:08;;;;;;;2.20;0.30;;;;;;;7.17;54.27;101423.00;4984782;28;20403;-67
2021/11/05 04:04:34;;;;;;;2.13;0.60;;;;;;;6.97;54.66;101428.53;4969373;28;20069;-65
2021/11/05 04:06:59;;;;;;;1.45;0.20;;;;;;;7.18;54.23;101428.19;4984423;28;20034;-64
2021/11/05 04:09:25;;;;;;;4.30;0.50;;;;;;;7.14;54.52;101423.94;4985058;28;20034;-64
2021/11/05 04:11:51;;;;;;;1.65;0.20;;;;;;;7.20;54.11;101425.53;4984025;28;20431;-64
2021/11/05 04:14:16;;;;;;;4.22;0.40;;;;;;;7.19;54.55;101435.09;4987039;28;20038;-67
2021/11/05 04:16:42;;;;;;;2.22;0.40;;;;;;;7.21;53.98;101428.13;4985163;28;20057;-68
2021/11/05 04:19:07;;;;;;;5.43;0.45;;;;;;;7.19;54.03;101429.91;4985254;28;20034;-66
2021/11/05 04:21:33;;;;;;;3.25;0.52;;;;;;;7.18;54.30;101435.16;4986085;28;20385;-65
2021/11/05 04:24:01;;;;;;;3.53;0.60;;;;;;;7.12;54.48;101443.88;4966635;28;20039;-66
2021/11/05 04:26:27;;;;;;;4.22;0.30;;;;;;;7.07;53.96;101443.13;4967772;28;20255;-65
2021/11/05 04:28:53;;;;;;;4.18;0.20;;;;;;;6.98;54.06;101448.47;4965186;28;20045;-63
2021/11/05 04:31:18;;;;;;;2.92;0.10;;;;;;;6.87;54.42;101453.81;4966474;28;20412;-65
2021/11/05 04:33:44;;;;;;;2.03;0.35;;;;;;;6.87;54.03;101459.03;4966412;28;20097;-65
2021/11/05 04:36:09;;;;;;;2.33;0.20;;;;;;;6.84;54.03;101464.25;4970795;28;20287;-67
2021/11/05 04:38:35;;;;;;;2.08;0.28;;;;;;;6.83;54.27;101463.38;4967893;28;20101;-65
2021/11/05 04:41:00;;;;;;;3.88;0.30;;;;;;;6.84;54.23;101462.53;4959301;28;20039;-66
2021/11/05 04:43:26;;;;;;;3.60;0.40;;;;;;;6.86;54.19;101458.16;4968555;28;20053;-65
2021/11/05 04:45:52;;;;;;;2.60;0.50;;;;;;;6.86;54.54;101471.16;4968852;28;20031;-65
2021/11/05 04:48:18;;;;;;;1.48;0.20;;;;;;;6.80;54.41;101473.00;4967166;28;20076;-65
2021/11/05 04:50:45;;;;;;;4.35;0.38;;;;;;;6.81;54.51;101464.31;4971074;28;20434;-65
2021/11/05 04:53:11;;;;;;;2.05;0.22;;;;;;;6.82;54.88;101481.59;4969423;28;20042;-65
2021/11/05 04:55:36;;;;;;;3.70;0.20;;;;;;;6.90;54.44;101480.59;4970497;28;20493;-66
2021/11/05 04:58:02;;;;;;;6.55;0.45;;;;;;;6.84;54.48;101482.44;4969160;28;20133;-65
2021/11/05 05:00:28;;;;;;;6.57;0.20;;;;;;;6.70;54.58;101486.09;4962653;28;20038;-66
2021/11/05 05:02:54;;;;;;;3.88;0.30;;;;;;;6.64;54.51;101488.78;4968611;28;20035;-65
2021/11/05 05:05:21;;;;;;;5.15;0.50;;;;;;;6.61;54.51;101500.94;4971262;28;20038;-67
2021/11/05 05:07:47;;;;;;;2.67;0.30;;;;;;;6.57;54.34;101501.84;4952258;28;20080;-66
2021/11/05 05:10:13;;;;;;;3.38;0.25;;;;;;;6.48;54.03;101493.34;4977197;28;20066;-65
2021/11/05 05:12:40;;;;;;;4.68;0.98;;;;;;;6.35;54.55;101503.88;4969494;28;20038;-65
2021/11/05 05:15:08;;;;;;;0.98;0.30;;;;;;;6.28;54.26;101506.56;4976114;28;20035;-66
2021/11/05 05:17:33;;;;;;;1.05;0.20;;;;;;;6.16;54.16;101505.81;4973981;28;20035;-64
2021/11/05 05:19:59;;;;;;;2.03;0.10;;;;;;;6.05;54.29;101514.56;4981060;28;20128;-65
2021/11/05 05:22:24;;;;;;;2.83;0.10;;;;;;;5.96;53.88;101516.41;4979309;28;20054;-64
2021/11/05 05:24:50;;;;;;;1.33;0.25;;;;;;;5.85;54.08;101519.09;4981818;28;20090;-64
2021/11/05 05:27:15;;;;;;;4.88;0.20;;;;;;;5.82;53.95;101519.13;4982506;28;20039;-67
2021/11/05 05:29:43;;;;;;;4.28;0.30;;;;;;;5.79;54.18;101522.63;4981119;28;20034;-65
2021/11/05 05:32:09;;;;;;;3.30;0.20;;;;;;;5.72;54.13;101530.47;4983331;28;20062;-64
2021/11/05 05:34:35;;;;;;;7.00;0.50;;;;;;;5.73;54.62;101530.47;4982340;28;20046;-62
2021/11/05 05:37:01;;;;;;;1.02;0.05;;;;;;;5.72;54.49;101533.06;4981623;28;20102;-64
2021/11/05 05:39:26;;;;;;;1.75;0.20;;;;;;;5.65;54.16;101540.88;4982256;28;20039;-64
2021/11/05 05:41:52;;;;;;;0.98;0.10;;;;;;;5.57;54.01;101545.31;4974125;28;20063;-65
2021/11/05 05:44:18;;;;;;;2.53;0.20;;;;;;;5.49;53.64;101544.50;4983091;28;20089;-65
2021/11/05 05:46:44;;;;;;;1.27;0.20;;;;;;;5.44;53.87;101546.28;4978289;28;20049;-66
2021/11/05 05:49:10;;;;;;;3.40;0.30;;;;;;;5.35;53.48;101559.31;4973493;28;20030;-65
2021/11/05 05:51:35;;;;;;;2.88;0.57;;;;;;;5.25;53.87;101551.56;4977580;28;20046;-65
2021/11/05 05:54:01;;;;;;;1.52;0.50;;;;;;;5.14;53.91;101555.97;4982146;28;20035;-64
2021/11/05 05:56:26;;;;;;;2.70;0.50;;;;;;;5.03;53.83;101565.53;4983833;28;20111;-64
2021/11/05 05:58:52;;;;;;;4.10;1.30;;;;;;;4.96;54.35;101572.47;4970626;28;20039;-66
2021/11/05 06:01:17;;;;;;;2.75;0.85;;;;;;;4.91;54.48;101571.66;4958997;28;20066;-64
2021/11/05 06:03:43;;;;;;;2.58;0.68;;;;;;;4.90;54.63;101567.34;4969536;28;20043;-66
2021/11/05 06:06:08;;;;;;;2.85;0.98;;;;;;;4.91;54.55;101575.97;4970970;28;20105;-66
2021/11/05 06:08:34;;;;;;;1.90;0.50;;;;;;;4.88;53.95;101571.69;4966539;28;20101;-67
2021/11/05 06:11:00;;;;;;;4.53;1.10;;;;;;;4.84;54.06;101582.88;4969812;28;20555;-66
2021/11/05 06:13:25;;;;;;;2.08;0.73;;;;;;;4.76;53.96;101582.06;4970669;28;20049;-66
2021/11/05 06:15:51;;;;;;;1.73;0.30;;;;;;;4.69;54.49;101591.56;4968649;28;20031;-67
2021/11/05 06:18:17;;;;;;;1.83;0.60;;;;;;;4.62;54.34;101584.69;4959004;28;20031;-67
2021/11/05 06:20:42;;;;;;;4.53;0.40;;;;;;;4.55;54.76;101593.38;4969428;28;20023;-67
2021/11/05 06:23:08;;;;;;;5.03;1.20;;;;;;;4.51;55.07;101595.09;4967940;28;20046;-67
2021/11/05 06:25:34;;;;;;;3.88;0.57;;;;;;;4.52;54.57;101599.41;4967338;28;20302;-65
2021/11/05 06:27:59;;;;;;;1.30;0.50;;;;;;;4.54;54.21;101612.34;4968749;28;20504;-67
2021/11/05 06:30:25;;;;;;;2.08;0.40;;;;;;;4.49;53.99;101612.34;4968377;28;20047;-66
2021/11/05 06:32:51;;;;;;;2.80;0.30;;;;;;;4.45;54.26;101617.53;4974009;28;20110;-65
2021/11/05 06:35:17;;;;;;;3.00;0.32;;;;;;;4.37;54.32;101623.59;4970772;28;20035;-66
2021/11/05 06:37:43;;;;;;;2.25;0.52;;;;;;;4.41;54.83;101627.06;4982788;28;20476;-66
2021/11/05 06:40:12;;;;;;;1.98;0.70;;;;;;;4.41;54.51;101638.28;4968169;28;20299;-65
2021/11/05 06:42:41;;;;;;;7.30;1.17;;;;;;;4.35;54.56;101629.66;4968789;28;20043;-67
2021/11/05 06:45:11;;;;;;;4.18;1.10;;;;;;;4.36;54.37;101637.44;4972637;28;20100;-64
2021/11/05 06:47:37;;;;;;;5.40;0.75;;;;;;;4.37;54.70;101636.53;4968553;28;20039;-65
2021/11/05 06:50:05;;;;;;;2.42;1.00;;;;;;;4.35;54.56;101646.03;4974698;28;20990;-63
2021/11/05 06:52:31;;;;;;;1.63;0.80;;;;;;;4.31;54.18;101652.06;4979726;28;20138;-63
2021/11/05 06:54:57;;;;;;;3.80;0.47;;;;;;;4.24;54.47;101650.38;4982689;28;20031;-65
2021/11/05 06:57:22;;;;;;;1.25;0.22;;;;;;;4.25;54.66;101651.22;4980052;28;20035;-64
2021/11/05 06:59:48;;;;;;;3.30;0.77;;;;;;;4.19;54.64;101658.13;4981816;28;20428;-65
2021/11/05 07:02:13;;;;;;;5.07;0.95;;;;;;;4.19;54.86;101662.47;4979053;28;20082;-65
2021/11/05 07:04:39;;;;;;;4.68;1.45;;;;;;;4.19;54.89;101668.50;4978810;28;20027;-64
2021/11/05 07:07:04;;;;;;;4.50;1.75;;;;;;;4.22;54.78;101673.66;4980807;28;20361;-63
2021/11/05 07:09:30;;;;;;;6.38;2.00;;;;;;;4.29;54.58;101673.66;4981990;28;20039;-65
2021/11/05 07:11:56;;;;;;;12.35;3.67;;;;;;;4.34;54.97;101674.50;4972787;28;20035;-68
2021/11/05 07:14:22;;;;;;;8.55;2.67;;;;;;;4.42;54.74;101678.81;4977226;28;20169;-65
2021/11/05 07:16:47;;;;;;;4.55;1.50;;;;;;;4.49;54.95;101691.75;4977029;28;20247;-66
2021/11/05 07:19:13;;;;;;;4.90;1.50;;;;;;;4.51;54.77;101685.69;4979838;28;20062;-66
2021/11/05 07:21:38;;;;;;;3.88;1.75;;;;;;;4.54;54.63;101697.78;4979019;28;20471;-65
2021/11/05 07:24:04;;;;;;;5.20;1.33;;;;;;;4.62;55.11;101701.22;4980063;28;20030;-63
2021/11/05 07:26:38;;;;;;;7.18;1.38;;;;;;;4.71;54.97;101708.13;4979945;28;20047;-64
2021/11/05 07:29:06;;;;;;;4.22;1.00;;;;;;;4.87;55.20;101709.78;4979939;28;20035;-65
2021/11/05 07:31:32;;;;;;;8.02;1.38;;;;;;;4.93;55.01;101720.19;4972373;28;20219;-65
2021/11/05 07:33:59;;;;;;;7.03;0.98;;;;;;;5.02;54.71;101724.47;4968400;28;20050;-64
2021/11/05 07:36:25;;;;;;;11.77;0.90;;;;;;;5.15;55.05;101722.72;4967792;28;20068;-65
2021/11/05 07:38:51;;;;;;;5.15;0.80;;;;;;;5.66;55.75;101734.56;4967962;28;20774;-64
2021/11/05 07:41:17;;;;;;;3.45;0.30;;;;;;;6.84;54.77;101735.38;4970646;28;20121;-64
2021/11/05 07:43:42;;;;;;;2.00;0.32;;;;;;;8.01;52.30;101740.81;4968737;28;20039;-65
2021/11/05 07:46:08;;;;;;;2.83;0.20;;;;;;;8.59;49.22;101736.41;4967299;28;20141;-64
2021/11/05 07:48:33;;;;;;;2.75;0.20;;;;;;;9.55;48.81;101746.69;4964739;28;20190;-65
2021/11/05 07:50:59;;;;;;;3.80;0.20;;;;;;;10.98;44.73;101746.69;4968993;28;20073;-67
2021/11/05 07:53:24;;;;;;;2.35;0.20;;;;;;;12.75;40.46;101743.78;4967714;28;20070;-64
2021/11/05 07:55:50;;;;;;;0.68;0.13;;;;;;;14.09;38.46;101749.25;4966883;28;20034;-64
2021/11/05 07:58:16;;;;;;;2.72;0.10;;;;;;;15.03;35.23;101754.00;4967195;28;20519;-66
2021/11/05 08:00:41;;;;;;;4.68;0.60;;;;;;;15.63;32.82;101756.53;4967937;28;20174;-67
2021/11/05 08:03:07;;;;;;;1.58;0.20;;;;;;;15.41;33.10;101761.97;4979902;28;20077;-66
2021/11/05 08:05:33;;;;;;;2.05;0.28;;;;;;;14.52;35.32;101772.03;4967274;28;20039;-65
2021/11/05 08:07:58;;;;;;;3.08;0.50;;;;;;;13.77;37.23;101772.41;4966692;28;20038;-65
2021/11/05 08:10:24;;;;;;;1.60;0.65;;;;;;;12.92;36.93;101779.94;4966450;28;20038;-67
2021/11/05 08:12:51;;;;;;;4.10;0.60;;;;;;;12.12;39.37;101781.75;4964591;28;20100;-65
2021/11/05 08:15:22;;;;;;;3.78;0.43;;;;;;;12.13;39.98;101789.53;4965747;28;20047;-66
2021/11/05 08:17:48;;;;;;;5.15;0.90;;;;;;;11.87;40.65;101801.72;4965546;28;20039;-68
2021/11/05 08:20:14;;;;;;;5.55;1.63;;;;;;;12.47;40.72;101797.19;4967632;28;20054;-65
2021/11/05 08:22:41;;;;;;;11.35;3.50;;;;;;;13.00;38.85;101790.16;4966953;28;20037;-66
2021/11/05 08:25:09;;;;;;;4.50;2.05;;;;;;;13.40;38.07;101799.19;4975125;28;20035;-66
2021/11/05 08:27:35;;;;;;;6.70;1.33;;;;;;;12.64;38.59;101803.59;4967619;28;20046;-64
2021/11/05 08:30:22;;;;;;;6.80;2.88;;;;;;;12.21;39.52;101805.88;4969073;28;20049;-66
2021/11/05 08:32:49;;;;;;;6.47;1.63;;;;;;;11.70;40.43;101814.41;4971983;28;20042;-66
2021/11/05 08:35:16;;;;;;;3.65;0.70;;;;;;;10.95;42.78;101822.63;4972192;28;20046;-65
2021/11/05 08:37:43;;;;;;;4.55;0.30;;;;;;;10.53;43.95;101828.03;4971172;28;20038;-66
2021/11/05 08:40:10;;;;;;;1.60;0.45;;;;;;;10.41;44.30;101820.47;4973854;28;20617;-66
2021/11/05 08:42:37;;;;;;;2.25;0.43;;;;;;;9.93;45.42;101833.78;4970982;28;20058;-66
2021/11/05 08:45:06;;;;;;;2.42;0.28;;;;;;;9.97;45.24;101832.84;4973517;28;20106;-67
2021/11/05 08:47:32;;;;;;;9.05;3.28;;;;;;;9.76;45.48;101842.78;4942980;28;20967;-66
2021/11/05 08:49:57;;;;;;;4.63;1.33;;;;;;;9.83;45.86;101840.94;4966550;28;20500;-66
2021/11/05 08:52:23;;;;;;;3.10;1.05;;;;;;;9.78;45.67;101838.41;4950948;28;20046;-65
2021/11/05 08:54:48;;;;;;;3.30;1.00;;;;;;;9.64;45.46;101843.06;4983459;28;20046;-65
2021/11/05 08:57:14;;;;;;;2.75;0.50;;;;;;;9.75;45.82;101843.69;4977311;28;20047;-65
2021/11/05 08:59:40;;;;;;;4.43;0.20;;;;;;;9.62;46.12;101842.22;4962892;28;20027;-64
2021/11/05 09:02:05;;;;;;;2.50;0.30;;;;;;;9.63;46.11;101848.31;4962587;28;20047;-64
2021/11/05 09:04:31;;;;;;;0.40;0.13;;;;;;;9.70;46.32;101855.13;4966582;28;20302;-65
2021/11/05 09:06:57;;;;;;;4.13;0.73;;;;;;;9.70;45.82;101850.78;4964045;28;21235;-65
2021/11/05 09:09:23;;;;;;;2.40;0.70;;;;;;;9.76;45.97;101852.38;4971078;28;20134;-66
2021/11/05 09:11:51;;;;;;;4.05;0.80;;;;;;;9.64;46.31;101855.25;4964721;28;20127;-66
2021/11/05 09:14:19;;;;;;;1.65;0.52;;;;;;;9.79;45.66;101858.44;4970517;28;20049;-65
2021/11/05 09:16:45;;;;;;;0.47;0.10;;;;;;;9.72;45.62;101856.81;4956930;28;20030;-64
2021/11/05 09:19:11;;;;;;;3.25;0.90;;;;;;;9.99;45.25;101857.13;4967743;28;20701;-65
2021/11/05 09:21:36;;;;;;;4.30;0.22;;;;;;;10.03;45.35;101858.78;4967809;28;20166;-65
2021/11/05 09:24:03;;;;;;;4.90;0.10;;;;;;;9.84;44.78;101852.28;4968491;28;20039;-63
2021/11/05 09:26:29;;;;;;;2.05;0.10;;;;;;;10.08;44.77;101856.06;4967823;28;20133;-65
2021/11/05 09:28:56;;;;;;;1.55;0.10;;;;;;;10.26;45.49;101870.47;4967007;28;20038;-65
2021/11/05 09:31:22;;;;;;;3.63;0.10;;;;;;;10.09;45.03;101868.25;4967845;28;20034;-64
2021/11/05 09:33:48;;;;;;;1.70;0.10;;;;;;;10.04;45.22;101868.38;4967877;28;20399;-65
2021/11/05 09:36:15;;;;;;;1.00;0.10;;;;;;;9.98;45.03;101876.31;4973587;28;20035;-64
2021/11/05 09:38:41;;;;;;;0.98;0.10;;;;;;;10.02;45.29;101877.97;4965488;28;20396;-64
2021/11/05 09:41:07;;;;;;;3.25;0.20;;;;;;;9.92;45.18;101882.56;4967031;28;20026;-64
2021/11/05 09:43:33;;;;;;;1.95;0.10;;;;;;;10.23;44.82;101884.47;4965101;28;20054;-64
2021/11/05 09:45:58;;;;;;;1.58;0.10;;;;;;;10.32;44.25;101893.88;4966132;28;20070;-65
2021/11/05 09:48:26;;;;;;;0.57;0.10;;;;;;;9.84;44.32;101896.66;4966013;28;20108;-64
2021/11/05 09:50:52;;;;;;;2.05;0.32;;;;;;;9.92;44.66;101899.94;4968400;28;20042;-65
2021/11/05 09:53:25;;;;;;;3.25;0.20;;;;;;;9.87;44.62;101891.38;4966803;28;20043;-64
2021/11/05 09:55:51;;;;;;;1.50;0.20;;;;;;;10.00;44.22;101901.50;4967523;28;20034;-63
2021/11/05 09:58:17;;;;;;;2.60;0.30;;;;;;;10.05;44.12;101904.03;4968041;28;20042;-64
2021/11/05 10:00:43;;;;;;;2.83;0.08;;;;;;;10.15;44.03;101910.78;4966137;28;20034;-64
2021/11/05 10:03:08;;;;;;;0.82;0.10;;;;;;;9.94;43.69;101916.44;4966291;28;20092;-65
2021/11/05 10:05:34;;;;;;;1.67;0.20;;;;;;;10.25;43.15;101916.66;4966729;28;20086;-66
2021/11/05 10:08:01;;;;;;;4.03;0.20;;;;;;;10.39;43.04;101918.97;4968200;28;20562;-67
2021/11/05 10:10:30;;;;;;;0.68;0.10;;;;;;;10.36;42.70;101919.03;4965567;28;20066;-66
2021/11/05 10:13:01;;;;;;;1.85;0.10;;;;;;;10.10;42.72;101917.88;4964461;28;20046;-66
2021/11/05 10:15:46;;;;;;;0.80;0.03;;;;;;;9.95;43.18;101923.41;4966997;28;20070;-65
2021/11/05 10:18:14;;;;;;;0.45;0.10;;;;;;;10.38;42.39;101923.31;4972186;28;20480;-64
2021/11/05 10:20:40;;;;;;;2.85;0.17;;;;;;;11.66;40.04;101933.25;4984775;28;20096;-64
2021/11/05 10:23:06;;;;;;;3.65;0.43;;;;;;;12.17;38.36;101927.44;4981278;28;20085;-64
2021/11/05 10:25:32;;;;;;;1.05;0.20;;;;;;;12.60;37.70;101922.63;4984084;28;20035;-64
2021/11/05 10:28:08;;;;;;;2.90;0.30;;;;;;;12.01;38.22;101932.28;4982400;28;20035;-64
2021/11/05 10:30:51;;;;;;;1.85;0.13;;;;;;;11.63;38.58;101928.97;4982440;28;20030;-65
2021/11/05 10:33:20;;;;;;;3.42;0.10;;;;;;;11.93;39.05;101926.41;4967753;28;20748;-64
2021/11/05 10:35:49;;;;;;;1.05;0.08;;;;;;;11.90;38.96;101930.88;4966926;28;20046;-65
2021/11/05 10:38:16;;;;;;;2.85;0.20;;;;;;;11.56;38.52;101930.03;4963901;28;20299;-65
2021/11/05 10:40:45;;;;;;;5.07;0.10;;;;;;;12.05;38.19;101931.28;4966126;28;20107;-65
2021/11/05 10:43:13;;;;;;;2.22;0.10;;;;;;;12.95;37.21;101933.78;4966153;28;20047;-65
2021/11/05 10:45:40;;;;;;;2.42;0.10;;;;;;;12.81;35.42;101936.88;4958674;28;20030;-65
2021/11/05 10:48:12;;;;;;;3.08;0.47;;;;;;;13.93;36.00;101933.84;4967019;28;20482;-66
2021/11/05 10:50:59;;;;;;;1.20;0.00;;;;;;;13.76;34.34;101930.97;4980639;28;21342;-68
2021/11/05 10:53:33;;;;;;;1.13;0.05;;;;;;;13.68;33.74;101931.25;4964439;28;20078;-66
2021/11/05 10:56:01;;;;;;;4.03;0.10;;;;;;;13.56;34.41;101936.91;4967093;28;20745;-65
2021/11/05 10:58:30;;;;;;;0.32;0.10;;;;;;;13.49;35.28;101940.66;4964017;28;20038;-64
2021/11/05 11:01:02;;;;;;;1.45;0.05;;;;;;;13.56;35.03;101941.31;4968988;28;20038;-65
2021/11/05 11:03:33;;;;;;;0.38;0.00;;;;;;;13.24;35.51;101946.78;4969080;28;20093;-65
2021/11/05 11:06:03;;;;;;;0.70;0.10;;;;;;;13.25;35.97;101947.63;4969775;28;20031;-67
2021/11/05 11:08:35;;;;;;;0.70;0.10;;;;;;;12.81;36.08;101948.22;4965169;28;20046;-66
2021/11/05 11:11:21;;;;;;;;;;;;;;;12.78;36.27;101950.06;4965469;28;20042;-66
2021/11/05 11:13:50;;;;;;;3.22;0.10;;;;;;;12.34;37.24;101947.06;4960570;28;19982;-66
2021/11/05 11:16:19;;;;;;;0.43;0.00;;;;;;;12.66;37.18;101954.75;4967923;28;20491;-65
2021/11/05 11:19:09;;;;;;;1.15;0.00;;;;;;;12.82;37.90;101954.31;4972064;28;20512;-65
2021/11/05 11:21:38;;;;;;;3.22;0.10;;;;;;;11.94;39.00;101958.72;4961375;28;20062;-65
2021/11/05 11:24:06;;;;;;;0.20;0.00;;;;;;;11.43;39.87;101962.69;4965211;28;20039;-65
2021/11/05 11:26:33;;;;;;;2.75;0.10;;;;;;;11.14;41.39;101960.81;4965004;28;20054;-65
2021/11/05 11:28:59;;;;;;;0.45;0.00;;;;;;;11.16;40.74;101959.00;4965176;28;20089;-64